Wednesday, June 20, 2018, 10:39 PM GMT
Back to Local

CYSJ, Saint John, N. B.

Location: , , Canada Lat: 45.333
Local Time: 10:39 PM GMT (22:39 GMT) Lon: -65.883
Time Zone: GMT Elev: 337 ft

Show me the last for .
Show Decoded

2018-06-20 22:00 METAR CYSJ 202200Z 22017G24KT 15SM FEW065 SCT240 18/07 A2966 RMK SC1CI2 SLP047
                 DENSITY ALT 1200FT =
2018-06-20 21:00 METAR CYSJ 202100Z 23022G34KT 15SM FEW065 SCT240 20/06 A2967 RMK SC2CI2 SLP051
                 DENSITY ALT 1300FT =
2018-06-20 20:00 METAR CYSJ 202000Z 23019G30KT 15SM FEW055 SCT290 21/07 A2969 RMK SC1CI2 SLP056
                 DENSITY ALT 1400FT =
2018-06-20 19:00 METAR CYSJ 201900Z 22026G34KT 15SM FEW055 SCT290 21/07 A2969 RMK SC1CI2 SLP055
                 DENSITY ALT 1500FT =
2018-06-20 18:00 METAR CYSJ 201800Z 20018G25KT 15SM FEW055 SCT290 22/09 A2969 RMK SC1CI2 SLP058
                 DENSITY ALT 1600FT =
2018-06-20 17:00 METAR CYSJ 201700Z 22018G30KT 15SM FEW060 SCT290 24/08 A2970 RMK CU1CI2 SLP060
                 DENSITY ALT 1700FT =
2018-06-20 16:00 METAR CYSJ 201600Z 21017G23KT 15SM FEW032 SCT290 23/10 A2972 RMK CU1CI2 SLP066
                 DENSITY ALT 1600FT =
2018-06-20 15:00 METAR CYSJ 201500Z 20014KT 180V260 15SM FEW240 24/11 A2974 RMK CI2 SLP073
                 DENSITY ALT 1700FT =
2018-06-20 14:00 METAR CYSJ 201400Z 25010KT 210V290 15SM FEW240 23/09 A2975 RMK CI2 SLP076
                 DENSITY ALT 1600FT =
2018-06-20 13:00 METAR CYSJ 201300Z 27007KT 250V330 15SM FEW240 21/09 A2976 RMK CI2 SLP079
                 DENSITY ALT 1400FT =
2018-06-20 12:00 METAR CYSJ 201200Z 28008KT 15SM FEW240 19/08 A2977 RMK CI2 SLP082 DENSITY ALT
                 1100FT =
2018-06-20 11:00 METAR CYSJ 201100Z 00000KT 15SM FEW250 15/10 A2977 RMK CI2 SLP084 DENSITY ALT
                 700FT =
2018-06-20 10:00 METAR CYSJ 201000Z 00000KT 15SM SCT250 10/09 A2976 RMK CI3 SLP080 =
2018-06-20 09:00 METAR CYSJ 200900Z 07003KT 15SM SCT250 05/05 A2976 RMK CI3 SLP080 =
2018-06-20 08:00 METAR CYSJ 200800Z VRB02KT 15SM FEW250 07/06 A2975 RMK CI1 SLP076 =
2018-06-20 07:00 METAR CYSJ 200700Z 00000KT 15SM SKC 07/06 A2976 RMK SLP079 =
2018-06-20 06:00 METAR CYSJ 200600Z VRB02KT 15SM SKC 09/08 A2975 RMK SLP078 =
2018-06-20 05:00 METAR CYSJ 200500Z 27004KT 230V310 15SM SKC 12/08 A2975 RMK SLP076 =
2018-06-20 04:00 METAR CYSJ 200400Z 31005KT 15SM SKC 15/08 A2974 RMK SLP073 DENSITY ALT 700FT =
2018-06-20 03:00 METAR CYSJ 200300Z 28004KT 15SM SKC 14/08 A2972 RMK SLP067 DENSITY ALT 600FT =
2018-06-20 02:00 METAR CYSJ 200200Z 29006KT 15SM SKC 16/08 A2971 RMK SLP063 DENSITY ALT 800FT =
2018-06-20 01:00 METAR CYSJ 200100Z 31007KT 15SM FEW080 17/08 A2970 RMK AC1 SLP060 DENSITY ALT
                 900FT =
2018-06-20 00:00 METAR CYSJ 200000Z 31012G17KT 15SM FEW070 18/08 A2968 RMK AC2 SLP052 DENSITY ALT
                 1100FT =
2018-06-19 23:00 METAR CYSJ 192300Z 32016G23KT 15SM SCT060 19/08 A2965 RMK SC3 SLP043 DENSITY ALT
                 1300FT =

Support USWX by starting your Amazon purchase here.